Terminal Aerodrome Forecast
Issued by NWS

Home | Current Version | Previous Version | Text Only | Print | Product List | Glossary On
Versions: 1 2 3 4 5 6 7 8 9 10 11 12 13 14 15 16
000
FTUS46 KLOX 020500 RRA
TAFSBA
TAF
KSBA 020542Z 0206/0306 VRB03KT P6SM SCT030 SCT060
     FM022100 23008KT P6SM SCT040 BKN080
     FM030100 21006KT P6SM VCSH BKN035 OVC050=

USA.gov is the U.S. government's official web portal to all federal, state and local government web resources and services.